Montara, CA (94037)

4:22 AM PST on January 24, 2017 (GMT -0800)
roof of house | | Change Station

Elev 203 ft 37.54 °N, 122.51 °W | Updated 2 seconds ago

Overcast
Overcast
45.6 °F
Feels Like 44 °F
N
3.5
Wind Variable Wind from NE
Gusts 7.0 mph

Today
High -- | Low -- °F
--% Chance of Precip.
Yesterday
High -- | Low -- °F
Precip. -- in
Pressure 29.94 in
Visibility 10.0 miles
Clouds Scattered Clouds 3200 ft
Scattered Clouds 4700 ft
Overcast 11000 ft
Windchill 44 °F
Dew Point 40 °F
Humidity 81%
Rainfall 0.00 in
Snow Depth Not available.
7:19 AM 5:25 PM
Waning Crescent, 12% visible
METAR KHAF 241215Z AUTO 00000KT 10SM SCT032 SCT047 OVC110 05/04 A2994 RMK AO2
Pressure 29.94 in
Visibility 10.0 miles
Clouds Scattered Clouds 3200 ft
Scattered Clouds 4700 ft
Overcast 11000 ft
Windchill 44 °F
Dew Point 40 °F
Humidity 81%
Rainfall 0.00 in
Snow Depth Not available.
7:19 AM 5:25 PM
Waning Crescent, 12% visible
METAR KHAF 241215Z AUTO 00000KT 10SM SCT032 SCT047 OVC110 05/04 A2994 RMK AO2

Get Your Daily Forecast Email!

Thanks for signing up!

Be on the lookout for a verification email in your inbox.

You'll start receiving the daily forecast at 8 AM.

×

10-Day Weather Forecast

Almanac

Astronomy

Jan. 24, 2017 Rise Set
Actual Time
Civil Twilight
Nautical Twilight
Astronomical Twilight
Moon
Length of Visible Light
Length of Day
Tomorrow will be .
, % of the Moon is Illuminated

Today's Extremes

State Highs State Lows

Community

WunderPhotos

Upload Photos

1,962,540 photos uploaded!

WunderBlog® & News

Nearby

Air Quality

  Air Quality AQ Index Pollutant
Not available.

Snow Depth

Station Depth Elevation

Earthquake Activity

City Distance Mag. Time & Date
Minimum magnitude displayed is 2.5.

Coastal Water Temperatures

Place Temperature

Stations

Nearby Weather Stations

Station Location Temp. Windchill Dew Point Humidity Wind Precip. Elev Updated Type
                   

Watches & Warnings

Small Craft for Rough Bar Advisory, Small Craft Advisory
Issued: 3:07 AM PST Jan. 24, 2017 – National Weather Service

... Small Craft Advisory for rough bar in effect until 4 PM PST
this afternoon...
... Small Craft Advisory remains in effect until 4 PM PST this
afternoon...

The National Weather Service San Francisco has issued a Small
Craft Advisory for rough bar... which is in effect until 4 PM PST
this afternoon. A Small Craft Advisory remains in effect until
4 PM PST this afternoon.


* Winds and waves: see the coastal waters forecast (cwfmtr) or
our marine Page at http://weather.Gov/sanfrancisco/marine.Php
for more details.

Precautionary/preparedness actions...

A Small Craft Advisory means that wind speeds of 21 to 33 knots
are expected to produce hazardous wave conditions to small craft.
Inexperienced mariners... especially those operating smaller
vessels should avoid navigating in these conditions.

A Small Craft Advisory for rough bar means that wave conditions
are expected to be hazardous to small craft in or near Harbor
entrances.